createdAt,value
2022-11-11T00:02:42.238Z,4.60
2022-11-11T00:05:28.059Z,5.47
2022-11-11T00:08:12.878Z,4.30
2022-11-11T00:11:08.041Z,4.28
2022-11-11T00:13:54.027Z,4.32
2022-11-11T00:16:57.728Z,4.55
2022-11-11T00:20:01.429Z,4.07
2022-11-11T00:23:04.946Z,4.32
2022-11-11T00:26:06.257Z,4.47
2022-11-11T00:28:58.270Z,3.80
2022-11-11T00:32:01.839Z,4.05
2022-11-11T00:35:06.935Z,4.03
2022-11-11T00:37:51.905Z,4.57
2022-11-11T00:40:36.866Z,4.18
2022-11-11T00:43:22.033Z,4.03
2022-11-11T00:46:25.969Z,4.50
2022-11-11T00:49:29.558Z,4.30
2022-11-11T00:52:14.714Z,4.38
2022-11-11T00:54:59.921Z,4.20
2022-11-11T00:57:45.086Z,4.00
2022-11-11T01:00:30.725Z,4.50
2022-11-11T01:03:16.324Z,3.70
2022-11-11T01:06:02.958Z,4.35
2022-11-11T01:08:48.136Z,4.35
2022-11-11T01:11:33.429Z,5.35
2022-11-11T01:14:18.393Z,5.60
2022-11-11T01:17:04.899Z,5.37
2022-11-11T01:19:49.755Z,5.00
2022-11-11T01:22:34.785Z,4.10
2022-11-11T01:25:19.919Z,4.20
2022-11-11T01:28:06.201Z,4.20
2022-11-11T01:30:50.834Z,4.10
2022-11-11T01:33:36.265Z,4.30
2022-11-11T01:36:24.517Z,4.22
2022-11-11T01:39:09.632Z,4.05
2022-11-11T01:41:59.168Z,4.30
2022-11-11T01:44:48.226Z,4.07
2022-11-11T01:48:21.782Z,3.42
2022-11-11T01:50:58.962Z,3.63
2022-11-11T01:53:45.613Z,3.90
2022-11-11T01:56:31.280Z,3.63
2022-11-11T01:59:17.835Z,3.93
2022-11-11T02:02:10.202Z,3.83
2022-11-11T02:05:14.283Z,3.60
2022-11-11T02:08:02.985Z,3.83
2022-11-11T02:10:48.067Z,3.80
2022-11-11T02:13:52.881Z,3.97
2022-11-11T02:16:37.733Z,3.72
2022-11-11T02:19:34.813Z,3.53
2022-11-11T02:22:28.753Z,3.30
2022-11-11T02:25:19.053Z,3.83
2022-11-11T02:28:06.907Z,4.77
2022-11-11T02:30:52.115Z,5.30
2022-11-11T02:33:37.004Z,4.97
2022-11-11T02:36:23.043Z,5.40
2022-11-11T02:39:08.444Z,4.95
2022-11-11T02:41:59.627Z,4.77
2022-11-11T02:44:44.527Z,4.97
2022-11-11T02:47:29.677Z,4.57
2022-11-11T02:50:15.047Z,4.22
2022-11-11T02:53:00.320Z,4.85
2022-11-11T02:55:45.219Z,4.70
2022-11-11T02:58:31.002Z,4.82
2022-11-11T03:01:19.596Z,4.55
2022-11-11T03:04:05.455Z,4.03
2022-11-11T03:06:50.662Z,3.58
2022-11-11T03:09:35.789Z,3.83
2022-11-11T03:12:21.237Z,3.95
2022-11-11T03:15:07.264Z,3.78
2022-11-11T03:17:52.468Z,3.55
2022-11-11T03:22:24.183Z,3.63
2022-11-11T03:24:21.901Z,3.83
2022-11-11T03:27:06.682Z,3.42
2022-11-11T03:29:51.731Z,4.03
2022-11-11T03:32:36.656Z,3.88
2022-11-11T03:35:21.717Z,3.80
2022-11-11T03:38:24.273Z,3.77
2022-11-11T03:41:09.220Z,3.33
2022-11-11T03:43:54.254Z,3.53
2022-11-11T03:46:39.394Z,3.65
2022-11-11T03:49:24.432Z,3.55
2022-11-11T03:52:09.451Z,3.50
2022-11-11T03:54:54.121Z,3.60
2022-11-11T03:57:45.143Z,4.00
2022-11-11T04:00:30.082Z,3.58
2022-11-11T04:03:38.410Z,4.05
2022-11-11T04:06:42.356Z,3.50
2022-11-11T04:09:45.800Z,3.10
2022-11-11T04:12:53.651Z,3.45
2022-11-11T04:15:57.134Z,3.50
2022-11-11T04:19:00.850Z,3.70
2022-11-11T04:21:46.232Z,3.57
2022-11-11T04:24:49.989Z,3.80
2022-11-11T04:27:35.174Z,3.40
2022-11-11T04:30:20.279Z,3.50
2022-11-11T04:33:05.315Z,3.28
2022-11-11T04:35:50.810Z,3.80
2022-11-11T04:38:54.487Z,3.70
2022-11-11T04:42:01.631Z,3.50
2022-11-11T04:45:03.167Z,3.63
2022-11-11T04:48:02.801Z,3.38
2022-11-11T04:50:47.954Z,3.90
2022-11-11T04:53:33.109Z,3.80
2022-11-11T04:56:36.848Z,3.92
2022-11-11T04:59:21.895Z,3.33
2022-11-11T05:02:26.433Z,3.35
2022-11-11T05:05:11.552Z,3.60
2022-11-11T05:08:15.092Z,3.60
2022-11-11T05:11:00.472Z,3.35
2022-11-11T05:14:03.951Z,3.63
2022-11-11T05:17:15.845Z,3.10
2022-11-11T05:20:19.369Z,2.80
2022-11-11T05:23:04.502Z,3.08
2022-11-11T05:25:49.686Z,3.90
2022-11-11T05:28:34.809Z,4.05
2022-11-11T05:31:19.964Z,3.58
2022-11-11T05:34:04.978Z,4.20
2022-11-11T05:36:49.771Z,5.72
2022-11-11T05:39:34.815Z,6.40
2022-11-11T05:42:19.949Z,6.05
2022-11-11T05:45:05.529Z,5.55
2022-11-11T05:47:50.305Z,5.43
2022-11-11T05:50:37.871Z,5.80
2022-11-11T05:53:24.261Z,4.72
2022-11-11T05:56:09.787Z,5.00
2022-11-11T05:58:54.793Z,5.80
2022-11-11T06:01:40.543Z,4.60
2022-11-11T06:04:26.107Z,5.22
2022-11-11T06:07:10.903Z,5.25
2022-11-11T06:10:15.657Z,5.50
2022-11-11T06:13:09.787Z,4.43
2022-11-11T06:15:56.869Z,5.27
2022-11-11T06:18:41.900Z,5.22
2022-11-11T06:21:27.285Z,4.90
2022-11-11T06:24:12.500Z,4.90
2022-11-11T06:26:57.419Z,5.32
2022-11-11T06:29:42.420Z,5.00
2022-11-11T06:32:28.573Z,4.47
2022-11-11T06:35:13.702Z,4.93
2022-11-11T06:37:58.504Z,4.72
2022-11-11T06:40:44.469Z,4.93
2022-11-11T06:43:29.556Z,4.27
2022-11-11T06:46:21.866Z,4.32
2022-11-11T06:49:06.910Z,4.18
2022-11-11T06:51:51.635Z,4.50
2022-11-11T06:54:36.658Z,3.88
2022-11-11T06:57:24.626Z,3.93
2022-11-11T07:00:10.101Z,4.25
2022-11-11T07:02:55.558Z,3.83
2022-11-11T07:05:41.721Z,4.25
2022-11-11T07:08:27.645Z,3.72
2022-11-11T07:11:18.379Z,4.20
2022-11-11T07:14:03.831Z,3.63
2022-11-11T07:16:49.090Z,3.92
2022-11-11T07:19:34.197Z,3.90
2022-11-11T07:22:19.272Z,3.20
2022-11-11T07:25:05.093Z,3.70
2022-11-11T07:27:51.736Z,4.05
2022-11-11T07:30:39.550Z,4.30
2022-11-11T07:33:25.069Z,3.25
2022-11-11T07:36:10.550Z,3.78
2022-11-11T07:38:55.806Z,3.97
2022-11-11T07:41:40.899Z,4.15
2022-11-11T07:44:26.034Z,4.30
2022-11-11T07:47:11.048Z,3.85
2022-11-11T07:49:56.031Z,3.95
2022-11-11T07:52:41.377Z,4.37
2022-11-11T07:55:26.114Z,3.78
2022-11-11T07:58:11.233Z,5.00
2022-11-11T08:01:02.145Z,5.63
2022-11-11T08:03:51.027Z,5.57
2022-11-11T08:06:36.245Z,4.07
2022-11-11T08:09:21.502Z,4.05
2022-11-11T08:12:25.324Z,5.20
2022-11-11T08:15:10.520Z,5.80
2022-11-11T08:17:55.712Z,4.07
2022-11-11T08:20:45.608Z,5.30
2022-11-11T08:24:22.718Z,4.80
2022-11-11T08:26:39.910Z,7.90
2022-11-11T08:29:25.131Z,12.77
2022-11-11T08:32:11.502Z,6.65
2022-11-11T08:34:56.661Z,4.77
2022-11-11T08:37:41.738Z,4.15
2022-11-11T08:40:27.154Z,4.68
2022-11-11T08:43:12.186Z,5.63
2022-11-11T08:45:57.747Z,4.57
2022-11-11T08:48:42.886Z,4.07
2022-11-11T08:51:32.490Z,5.55
2022-11-11T08:54:22.028Z,4.28
2022-11-11T08:57:07.042Z,4.20
2022-11-11T08:59:51.974Z,5.38
2022-11-11T09:02:37.359Z,6.20
2022-11-11T09:05:22.266Z,6.68
2022-11-11T09:08:08.273Z,5.25
2022-11-11T09:10:53.178Z,5.90
2022-11-11T09:13:38.278Z,3.75
2022-11-11T09:16:23.414Z,4.70
2022-11-11T09:19:08.551Z,4.57
2022-11-11T09:21:53.689Z,3.88
2022-11-11T09:24:38.895Z,4.03
2022-11-11T09:27:24.091Z,4.22
2022-11-11T09:30:10.825Z,4.67
2022-11-11T09:33:01.253Z,3.83
2022-11-11T09:35:46.195Z,3.95
2022-11-11T09:38:31.475Z,3.60
2022-11-11T09:41:44.863Z,3.70
2022-11-11T09:45:06.627Z,3.20
2022-11-11T09:48:22.465Z,3.80
2022-11-11T09:51:25.861Z,3.90
2022-11-11T09:54:22.650Z,3.60
2022-11-11T09:57:19.009Z,3.67
2022-11-11T10:00:17.898Z,2.97
2022-11-11T10:03:17.025Z,2.95
2022-11-11T10:06:21.028Z,3.35
2022-11-11T10:09:19.702Z,2.65
2022-11-11T10:12:14.148Z,2.72
2022-11-11T10:15:01.171Z,4.37
2022-11-11T10:18:04.608Z,4.03
2022-11-11T10:20:55.036Z,3.47
2022-11-11T10:23:39.992Z,3.40
2022-11-11T10:26:41.631Z,3.10
2022-11-11T10:29:30.450Z,3.63
2022-11-11T10:32:27.491Z,3.25
2022-11-11T10:35:20.194Z,2.67
2022-11-11T10:38:10.911Z,3.00
2022-11-11T10:41:01.027Z,2.90
2022-11-11T10:43:47.438Z,2.50
2022-11-11T10:46:42.543Z,2.90
2022-11-11T10:49:31.570Z,2.88
2022-11-11T10:52:23.975Z,2.20
2022-11-11T10:55:22.497Z,2.58
2022-11-11T10:58:16.770Z,2.40
2022-11-11T11:01:06.342Z,2.30
2022-11-11T11:04:00.637Z,2.33
2022-11-11T11:06:48.922Z,2.05
2022-11-11T11:09:52.993Z,1.90
2022-11-11T11:12:59.045Z,2.37
2022-11-11T11:15:49.880Z,2.30
2022-11-11T11:18:37.996Z,2.03
2022-11-11T11:21:27.047Z,2.00
2022-11-11T11:24:27.560Z,1.67
2022-11-11T11:27:26.531Z,1.80
2022-11-11T11:30:17.859Z,1.38
2022-11-11T11:33:08.135Z,1.70
2022-11-11T11:35:53.541Z,1.65
2022-11-11T11:38:43.989Z,1.77
2022-11-11T11:41:43.750Z,1.63
2022-11-11T11:44:34.523Z,1.23
2022-11-11T11:51:26.102Z,1.67
2022-11-11T11:54:37.314Z,1.58
2022-11-11T11:57:53.638Z,1.60
2022-11-11T12:00:50.703Z,1.48
2022-11-11T12:04:04.407Z,1.60
2022-11-11T12:07:05.010Z,1.15
2022-11-11T12:10:03.903Z,1.40
2022-11-11T12:13:25.662Z,1.50
2022-11-11T12:16:31.331Z,1.67
2022-11-11T12:19:39.495Z,1.70
2022-11-11T12:22:47.590Z,1.60
2022-11-11T12:26:01.408Z,2.58
2022-11-11T12:29:07.750Z,1.27
2022-11-11T12:32:11.259Z,1.45
2022-11-11T12:35:09.556Z,1.40
2022-11-11T12:38:13.183Z,1.58
2022-11-11T12:41:13.034Z,1.30
2022-11-11T12:44:08.576Z,1.47
2022-11-11T12:47:32.831Z,1.58
2022-11-11T12:50:35.754Z,0.95
2022-11-11T12:54:00.960Z,0.88
2022-11-11T12:56:57.722Z,1.20
2022-11-11T12:59:59.448Z,0.80
2022-11-11T13:03:21.958Z,0.82
2022-11-11T13:06:25.590Z,0.70
2022-11-11T13:09:37.562Z,1.10
2022-11-11T13:12:35.454Z,0.85
2022-11-11T13:15:25.928Z,0.90
2022-11-11T13:18:15.624Z,0.70
2022-11-11T13:21:06.158Z,0.85
2022-11-11T13:23:52.674Z,0.98
2022-11-11T13:26:43.766Z,0.90
2022-11-11T13:29:52.998Z,0.70
2022-11-11T13:32:47.744Z,0.88
2022-11-11T13:35:40.752Z,1.00
2022-11-11T13:38:30.369Z,1.00
2022-11-11T13:41:25.493Z,0.90
2022-11-11T13:44:24.215Z,1.17
2022-11-11T13:47:18.229Z,0.80
2022-11-11T13:50:08.122Z,0.73
2022-11-11T13:53:25.337Z,1.00
2022-11-11T13:56:11.696Z,1.00
2022-11-11T13:58:58.236Z,0.70
2022-11-11T14:01:43.257Z,0.93
2022-11-11T14:04:28.270Z,1.05
2022-11-11T14:07:47.013Z,0.80
2022-11-11T14:10:36.172Z,1.00
2022-11-11T14:13:20.997Z,0.90
2022-11-11T14:16:10.197Z,0.90
2022-11-11T14:18:55.391Z,1.00
2022-11-11T14:21:48.631Z,1.10
2022-11-11T14:24:41.798Z,0.85
2022-11-11T14:27:30.468Z,1.20
2022-11-11T14:30:48.034Z,1.30
2022-11-11T14:33:57.693Z,1.00
2022-11-11T14:36:50.907Z,0.93
2022-11-11T14:39:42.628Z,0.88
2022-11-11T14:42:44.648Z,0.80
2022-11-11T14:45:32.567Z,0.98
2022-11-11T14:48:48.617Z,1.35
2022-11-11T14:51:46.951Z,1.10
2022-11-11T14:54:48.730Z,0.80
2022-11-11T14:57:40.789Z,1.30
2022-11-11T15:00:49.135Z,1.10
2022-11-11T15:03:54.846Z,2.08
2022-11-11T15:06:46.459Z,1.13
2022-11-11T15:09:52.243Z,1.10
2022-11-11T15:13:08.767Z,1.03
2022-11-11T15:16:23.704Z,1.48
2022-11-11T15:19:14.220Z,1.00
2022-11-11T15:22:20.745Z,1.15
2022-11-11T15:25:37.295Z,1.35
2022-11-11T15:28:43.921Z,1.00
2022-11-11T15:31:42.496Z,1.38
2022-11-11T15:34:46.641Z,3.20
2022-11-11T15:37:32.129Z,2.72
2022-11-11T15:41:09.610Z,2.40
2022-11-11T15:43:54.822Z,2.00
2022-11-11T15:46:42.528Z,2.40
2022-11-11T15:49:45.074Z,2.30
2022-11-11T15:52:33.061Z,2.22
2022-11-11T15:55:24.409Z,2.50
2022-11-11T15:58:30.351Z,4.00
2022-11-11T16:01:16.356Z,3.03
2022-11-11T16:04:01.309Z,3.67
2022-11-11T16:06:47.694Z,3.90
2022-11-11T16:09:32.826Z,3.08
2022-11-11T16:12:27.140Z,3.70
2022-11-11T16:15:22.727Z,4.75
2022-11-11T16:18:23.418Z,4.18
2022-11-11T16:21:18.519Z,5.03
2022-11-11T16:24:04.108Z,2.78
2022-11-11T16:26:49.227Z,2.93
2022-11-11T16:29:37.569Z,2.83
2022-11-11T16:32:25.316Z,3.63
2022-11-11T16:35:25.409Z,3.03
2022-11-11T16:38:10.142Z,2.97
2022-11-11T16:40:55.315Z,2.93
2022-11-11T16:43:43.572Z,2.70
2022-11-11T16:46:37.428Z,3.03
2022-11-11T16:49:28.682Z,2.38
2022-11-11T16:52:18.255Z,2.30
2022-11-11T16:55:03.362Z,2.30
2022-11-11T16:57:48.949Z,2.08
2022-11-11T17:00:34.283Z,3.15
2022-11-11T17:03:26.894Z,5.28
2022-11-11T17:06:11.885Z,5.35
2022-11-11T17:08:57.184Z,4.57
2022-11-11T17:11:44.676Z,5.05
2022-11-11T17:14:33.933Z,3.47
2022-11-11T17:17:19.290Z,3.28
2022-11-11T17:20:10.787Z,3.40
2022-11-11T17:22:57.598Z,3.10
2022-11-11T17:25:42.545Z,3.50
2022-11-11T17:28:31.653Z,3.83
2022-11-11T17:31:16.674Z,4.03
2022-11-11T17:34:06.184Z,4.13
2022-11-11T17:36:51.597Z,4.43
2022-11-11T17:39:36.532Z,4.32
2022-11-11T17:42:21.619Z,4.72
2022-11-11T17:45:07.624Z,5.20
2022-11-11T17:47:55.034Z,5.05
2022-11-11T17:50:40.251Z,5.00
2022-11-11T17:53:26.258Z,5.65
2022-11-11T17:56:11.203Z,5.55
2022-11-11T17:58:56.361Z,5.35
2022-11-11T18:01:41.588Z,5.50
2022-11-11T18:04:26.582Z,5.10
2022-11-11T18:07:11.718Z,9.95
2022-11-11T18:09:56.636Z,7.03
2022-11-11T18:12:41.830Z,7.95
2022-11-11T18:15:26.709Z,8.55
2022-11-11T18:18:11.809Z,9.20
2022-11-11T18:21:06.327Z,8.55
2022-11-11T18:23:51.905Z,7.53
2022-11-11T18:26:40.013Z,6.75
2022-11-11T18:29:25.886Z,7.65
2022-11-11T18:32:10.870Z,8.03
2022-11-11T18:34:55.970Z,8.60
2022-11-11T18:37:46.186Z,7.90
2022-11-11T18:40:31.536Z,8.93
2022-11-11T18:43:16.586Z,10.40
2022-11-11T18:46:06.754Z,9.40
2022-11-11T18:49:02.621Z,9.85
2022-11-11T18:51:47.551Z,9.55
2022-11-11T18:54:32.401Z,9.73
2022-11-11T18:57:17.452Z,12.80
2022-11-11T19:00:03.733Z,12.00
2022-11-11T19:02:48.852Z,10.55
2022-11-11T19:05:34.040Z,8.10
2022-11-11T19:08:19.003Z,6.70
2022-11-11T19:11:06.215Z,6.93
2022-11-11T19:13:51.392Z,7.43
2022-11-11T19:16:36.566Z,7.32
2022-11-11T19:19:21.774Z,6.85
2022-11-11T19:22:06.955Z,7.10
2022-11-11T19:24:51.881Z,7.43
2022-11-11T19:27:37.082Z,7.10
2022-11-11T19:30:22.145Z,7.95
2022-11-11T19:33:07.507Z,7.22
2022-11-11T19:35:57.491Z,6.82
2022-11-11T19:38:42.806Z,6.60
2022-11-11T19:41:30.330Z,6.43
2022-11-11T19:44:15.196Z,6.47
2022-11-11T19:47:00.169Z,6.18
2022-11-11T19:49:45.196Z,7.32
2022-11-11T19:52:30.323Z,8.52
2022-11-11T19:55:15.385Z,8.43
2022-11-11T19:58:00.334Z,8.23
2022-11-11T20:00:45.486Z,9.98
2022-11-11T20:03:32.097Z,10.68
2022-11-11T20:06:32.409Z,14.48
2022-11-11T20:09:17.201Z,13.50
2022-11-11T20:12:02.406Z,14.13
2022-11-11T20:14:47.825Z,11.23
2022-11-11T20:17:32.692Z,10.63
2022-11-11T20:20:17.819Z,9.60
2022-11-11T20:23:06.449Z,9.47
2022-11-11T20:25:52.487Z,9.50
2022-11-11T20:28:38.858Z,9.68
2022-11-11T20:31:25.120Z,8.57
2022-11-11T20:34:10.070Z,9.82
2022-11-11T20:36:55.103Z,10.20
2022-11-11T20:39:40.008Z,9.85
2022-11-11T20:42:25.165Z,10.27
2022-11-11T20:45:12.475Z,10.23
2022-11-11T20:47:57.827Z,9.85
2022-11-11T20:50:42.763Z,9.17
2022-11-11T20:53:28.342Z,9.40
2022-11-11T20:56:22.237Z,9.70
2022-11-11T20:59:08.893Z,9.13
2022-11-11T21:01:54.300Z,8.38
2022-11-11T21:04:39.156Z,8.77
2022-11-11T21:07:24.342Z,10.80
2022-11-11T21:10:09.602Z,11.45
2022-11-11T21:12:54.828Z,14.07
2022-11-11T21:15:39.758Z,11.80
2022-11-11T21:18:24.957Z,11.93
2022-11-11T21:21:28.612Z,9.73
2022-11-11T21:24:13.533Z,8.35
2022-11-11T21:26:58.384Z,7.85
2022-11-11T21:29:43.435Z,7.53
2022-11-11T21:32:28.658Z,6.70
2022-11-11T21:35:13.749Z,7.40
2022-11-11T21:37:58.598Z,6.85
2022-11-11T21:40:44.609Z,7.10
2022-11-11T21:43:29.740Z,6.85
2022-11-11T21:46:17.439Z,6.20
2022-11-11T21:49:03.258Z,6.70
2022-11-11T21:51:48.503Z,7.03
2022-11-11T21:54:33.738Z,6.18
2022-11-11T21:57:18.767Z,6.95
2022-11-11T22:00:04.502Z,6.70
2022-11-11T22:02:49.298Z,6.45
2022-11-11T22:05:34.597Z,6.68
2022-11-11T22:08:19.723Z,6.07
2022-11-11T22:11:07.408Z,5.82
2022-11-11T22:13:52.577Z,6.13
2022-11-11T22:16:37.953Z,6.13
2022-11-11T22:19:23.190Z,6.20
2022-11-11T22:22:08.197Z,5.43
2022-11-11T22:24:53.163Z,4.97
2022-11-11T22:27:38.422Z,5.23
2022-11-11T22:30:23.505Z,5.22
2022-11-11T22:33:08.721Z,5.15
2022-11-11T22:35:53.577Z,5.85
2022-11-11T22:38:39.519Z,6.00
2022-11-11T22:41:27.324Z,5.73
2022-11-11T22:44:12.325Z,6.07
2022-11-11T22:46:57.187Z,6.63
2022-11-11T22:49:42.316Z,6.63
2022-11-11T22:52:27.264Z,6.82
2022-11-11T22:55:12.415Z,6.87
2022-11-11T22:57:58.027Z,6.22
2022-11-11T23:00:42.811Z,6.32
2022-11-11T23:03:27.799Z,6.22
2022-11-11T23:06:15.996Z,6.47
2022-11-11T23:09:00.986Z,6.23
2022-11-11T23:11:46.138Z,6.43
2022-11-11T23:14:31.182Z,6.45
2022-11-11T23:17:16.174Z,6.43
2022-11-11T23:20:01.232Z,6.40
2022-11-11T23:22:46.273Z,6.20
2022-11-11T23:25:33.883Z,5.70
2022-11-11T23:28:20.429Z,6.07
2022-11-11T23:31:17.215Z,6.00
2022-11-11T23:34:03.284Z,5.75
2022-11-11T23:36:48.469Z,6.23
2022-11-11T23:39:33.260Z,6.28
2022-11-11T23:42:18.298Z,5.80
2022-11-11T23:45:03.466Z,5.63
2022-11-11T23:47:48.284Z,5.97
2022-11-11T23:50:33.227Z,5.70
2022-11-11T23:53:18.767Z,6.55
2022-11-11T23:56:04.416Z,5.78
2022-11-11T23:58:49.282Z,6.00
